Time;durP1;ratioP1;P1;durP2;ratioP2;P2;SDS_P1;SDS_P2;PMS_P1;PMS_P2;Temp;Humidity;BMP_temperature;BMP_pressure;BME280_temperature;BME280_humidity;BME280_pressure;Samples;Min_cycle;Max_cycle;Signal;HPM_P1;HPM_P2
2023/11/26 00:00:14;;;;;;;6.80;3.07;;;0.10;96.50;;;-0.86;100.00;97387.84;4945550;28;20465;-73
2023/11/26 00:02:41;;;;;;;3.40;3.10;;;0.10;96.00;;;-0.82;100.00;97379.59;4948238;28;20860;-77
2023/11/26 00:05:09;;;;;;;7.13;2.63;;;0.20;95.70;;;-0.84;100.00;97389.50;4955726;28;20479;-76
2023/11/26 00:07:38;;;;;;;6.30;3.03;;;0.20;95.30;;;-0.76;100.00;97390.41;4947447;28;20470;-78
2023/11/26 00:10:06;;;;;;;3.30;2.37;;;0.20;95.00;;;-0.74;100.00;97384.91;4945485;28;20538;-75
2023/11/26 00:12:33;;;;;;;4.20;2.27;;;0.20;94.50;;;-0.76;100.00;97381.59;4947906;29;21133;-75
2023/11/26 00:15:00;;;;;;;3.83;2.43;;;0.30;93.90;;;-0.70;100.00;97391.56;4947083;29;20483;-76
2023/11/26 00:17:27;;;;;;;5.33;2.33;;;0.30;93.40;;;-0.75;100.00;97394.72;4947352;28;20462;-77
2023/11/26 00:19:56;;;;;;;5.30;3.10;;;0.30;92.90;;;-0.73;100.00;97403.34;4948686;28;20951;-75
2023/11/26 00:22:27;;;;;;;6.63;3.00;;;0.30;92.80;;;-0.69;100.00;97393.22;4946817;28;20501;-77
2023/11/26 00:24:56;;;;;;;4.30;2.50;;;0.30;92.90;;;-0.66;100.00;97392.94;4958964;28;20563;-75
2023/11/26 00:27:25;;;;;;;5.40;2.70;;;0.30;92.80;;;-0.73;100.00;97402.50;4943439;28;20460;-76
2023/11/26 00:29:52;;;;;;;5.00;2.80;;;0.30;92.60;;;-0.68;100.00;97400.22;4948140;28;20458;-75
2023/11/26 00:32:19;;;;;;;4.50;2.60;;;0.30;92.60;;;-0.69;100.00;97403.84;4947790;28;20527;-77
2023/11/26 00:34:47;;;;;;;3.30;2.80;;;0.40;92.80;;;-0.68;100.00;97402.88;4946953;28;20483;-79
2023/11/26 00:37:14;;;;;;;4.80;2.70;;;0.30;92.80;;;-0.80;100.00;97409.44;4944411;29;20467;-76
2023/11/26 00:39:42;;;;;;;2.93;1.70;;;0.30;92.40;;;-0.76;100.00;97405.47;4938691;29;20465;-75
2023/11/26 00:42:11;;;;;;;4.77;3.27;;;0.30;92.80;;;-0.76;100.00;97413.44;4945881;28;20459;-75
2023/11/26 00:44:38;;;;;;;3.10;2.57;;;0.20;92.80;;;-0.86;100.00;97411.72;4946820;28;20967;-76
2023/11/26 00:47:06;;;;;;;4.27;2.70;;;0.20;92.70;;;-0.92;100.00;97408.84;4945341;29;20465;-77
2023/11/26 00:49:33;;;;;;;7.53;3.33;;;0.20;92.90;;;-0.87;100.00;97422.50;4947242;28;20448;-75
2023/11/26 00:52:00;;;;;;;5.80;5.20;;;0.20;93.40;;;-0.92;100.00;97417.66;4947825;28;20454;-76
2023/11/26 00:54:28;;;;;;;6.10;2.70;;;0.20;93.40;;;-0.94;100.00;97432.91;4949041;28;20479;-75
2023/11/26 00:56:54;;;;;;;7.43;3.53;;;0.10;93.30;;;-0.95;100.00;97427.75;4941733;29;20464;-73
2023/11/26 00:59:23;;;;;;;4.20;3.40;;;0.10;93.40;;;-1.03;100.00;97429.38;4948133;28;20467;-75
2023/11/26 01:01:50;;;;;;;3.50;2.93;;;0.00;93.50;;;-1.59;100.00;97349.31;4951344;28;20473;-73
2023/11/26 01:04:17;;;;;;;4.00;2.70;;;0.00;93.70;;;-1.08;100.00;97436.13;4947517;28;20919;-74
2023/11/26 01:06:45;;;;;;;4.03;3.03;;;-0.10;93.80;;;-1.07;100.00;97437.78;4949459;28;20462;-75
2023/11/26 01:09:13;;;;;;;4.30;3.23;;;-0.10;94.10;;;-1.03;100.00;97439.97;4942718;28;20466;-75
2023/11/26 01:11:40;;;;;;;6.10;3.23;;;0.00;94.30;;;-1.00;100.00;97442.31;4953166;28;20470;-76
2023/11/26 01:14:08;;;;;;;4.53;3.07;;;0.00;94.20;;;-0.94;100.00;97448.81;4949402;28;20504;-74
2023/11/26 01:16:36;;;;;;;4.77;3.37;;;0.00;94.20;;;-0.91;100.00;97445.84;4949405;28;20458;-75
2023/11/26 01:19:03;;;;;;;3.90;3.50;;;0.20;94.20;;;-0.82;100.00;97451.22;4947336;28;20502;-74
2023/11/26 01:21:31;;;;;;;5.57;3.67;;;0.20;93.80;;;-0.78;100.00;97460.53;4946405;28;20481;-74
2023/11/26 01:23:58;;;;;;;5.40;3.10;;;0.30;93.90;;;-0.77;100.00;97460.34;4947157;28;20465;-75
2023/11/26 01:26:25;;;;;;;4.17;3.20;;;0.30;93.80;;;-0.65;100.00;97463.59;4948859;28;20850;-75
2023/11/26 01:28:52;;;;;;;5.17;3.67;;;0.40;94.30;;;-0.61;100.00;97477.34;4955661;28;20464;-73
2023/11/26 01:31:19;;;;;;;4.50;4.07;;;0.40;94.10;;;-0.56;100.00;97472.41;4953132;28;21189;-74
2023/11/26 01:33:48;;;;;;;7.37;3.73;;;0.40;94.10;;;-0.59;100.00;97483.34;4957160;28;20951;-72
2023/11/26 01:36:15;;;;;;;7.43;4.00;;;0.40;93.80;;;-0.57;100.00;97479.53;4949379;28;20888;-75
2023/11/26 01:38:42;;;;;;;6.40;3.77;;;0.40;93.90;;;-0.49;100.00;97478.75;4948655;29;20456;-74
2023/11/26 01:41:09;;;;;;;4.20;3.50;;;0.50;94.40;;;-0.52;100.00;97483.56;4950257;28;20465;-76
2023/11/26 01:43:37;;;;;;;3.23;2.80;;;0.50;94.30;;;-0.45;100.00;97493.38;4952176;28;20798;-74
2023/11/26 01:46:07;;;;;;;6.27;3.90;;;0.50;94.40;;;-0.48;100.00;97496.31;4946717;28;21202;-74
2023/11/26 01:48:36;;;;;;;6.43;3.63;;;0.50;94.50;;;-0.75;100.00;97420.41;4947466;28;20445;-73
2023/11/26 01:51:12;;;;;;;6.40;3.50;;;0.60;95.10;;;-0.35;100.00;97501.22;4948278;28;20457;-75
2023/11/26 01:53:44;;;;;;;7.03;3.00;;;0.60;94.40;;;-0.20;100.00;97504.09;4950423;28;20849;-76
2023/11/26 01:56:12;;;;;;;4.03;3.30;;;0.70;94.70;;;-0.25;100.00;97514.38;4946612;29;20538;-77
2023/11/26 01:58:40;;;;;;;3.50;2.47;;;0.70;94.30;;;-0.25;100.00;97508.22;4951750;28;20464;-74
2023/11/26 02:01:07;;;;;;;6.60;3.23;;;0.70;94.20;;;-0.18;100.00;97512.72;4949602;28;20549;-78
2023/11/26 02:03:36;;;;;;;7.13;3.70;;;0.70;94.20;;;-0.15;100.00;97516.91;4951841;28;20468;-75
2023/11/26 02:06:06;;;;;;;7.53;3.03;;;0.70;94.60;;;-0.24;100.00;97515.19;4949632;28;20479;-75
2023/11/26 02:08:33;;;;;;;5.57;2.87;;;0.80;94.40;;;-0.29;100.00;97523.66;4951425;28;20519;-77
2023/11/26 02:11:01;;;;;;;4.87;3.70;;;0.70;94.00;;;-0.35;100.00;97514.50;4947316;28;20865;-76
2023/11/26 02:13:29;;;;;;;5.90;3.40;;;0.70;93.90;;;-0.35;100.00;97522.47;4950512;28;20468;-75
2023/11/26 02:15:57;;;;;;;4.37;2.90;;;0.70;94.10;;;-0.41;100.00;97517.75;4949650;28;20476;-72
2023/11/26 02:18:25;;;;;;;7.40;3.77;;;0.70;94.10;;;-0.44;100.00;97521.59;4952027;28;21132;-75
2023/11/26 02:20:52;;;;;;;5.50;3.27;;;0.70;94.20;;;-0.34;100.00;97528.59;4957523;28;20542;-75
2023/11/26 02:23:39;;;;;;;5.23;2.60;;;0.70;94.40;;;-0.35;100.00;97535.75;4949702;29;20868;-76
2023/11/26 02:26:10;;;;;;;9.47;4.10;;;0.70;94.10;;;-0.34;100.00;97540.06;4945548;28;21194;-74
2023/11/26 02:28:37;;;;;;;8.60;4.00;;;0.70;94.10;;;-0.26;100.00;97533.09;4949275;28;20511;-74
2023/11/26 02:31:05;;;;;;;3.70;3.23;;;0.70;94.30;;;-0.35;100.00;97541.03;4947892;29;20461;-73
2023/11/26 02:33:33;;;;;;;3.73;3.03;;;0.60;93.60;;;-0.37;100.00;97537.72;4951442;28;20552;-74
2023/11/26 02:36:01;;;;;;;5.90;3.50;;;0.60;93.60;;;-0.77;100.00;97448.91;4944659;28;20482;-73
2023/11/26 02:38:29;;;;;;;7.17;3.50;;;0.70;93.90;;;-0.29;100.00;97537.75;4949039;28;20532;-73
2023/11/26 02:40:56;;;;;;;4.13;2.70;;;0.70;93.50;;;-0.22;100.00;97539.78;4948321;28;21002;-72
2023/11/26 02:43:24;;;;;;;4.17;3.50;;;0.80;93.60;;;-0.23;100.00;97546.91;4950856;28;20462;-73
2023/11/26 02:45:56;;;;;;;5.07;3.30;;;0.80;93.60;;;-0.19;100.00;97548.25;4943749;28;20472;-75
2023/11/26 02:48:24;;;;;;;4.53;3.43;;;0.80;93.40;;;-0.24;100.00;97544.41;4948283;29;20564;-74
2023/11/26 02:50:52;;;;;;;10.30;3.90;;;0.80;93.20;;;-0.17;100.00;97564.03;4949092;28;21252;-72
2023/11/26 02:53:19;;;;;;;5.73;3.63;;;0.80;93.30;;;-0.17;100.00;97561.38;4966916;28;20455;-74
2023/11/26 02:55:47;;;;;;;5.80;3.63;;;0.80;92.90;;;-0.14;100.00;97563.72;4949536;28;20472;-74
2023/11/26 02:58:16;;;;;;;5.13;3.73;;;0.90;93.00;;;-0.12;100.00;97566.22;4947697;29;20493;-75
2023/11/26 03:00:47;;;;;;;8.63;3.17;;;0.80;92.90;;;-0.23;100.00;97557.53;4949492;28;20460;-73
2023/11/26 03:03:14;;;;;;;5.10;3.77;;;0.90;92.70;;;-0.25;100.00;97561.31;4945409;28;20474;-74
2023/11/26 03:05:42;;;;;;;4.40;3.57;;;0.90;92.20;;;-0.21;100.00;97570.66;4948681;28;21108;-75
2023/11/26 03:08:21;;;;;;;4.20;3.13;;;0.90;92.10;;;-0.23;100.00;97564.66;4950719;28;20467;-74
2023/11/26 03:13:35;;;;;;;12.33;4.20;;;0.90;92.60;;;-0.20;100.00;97574.97;4948387;28;21116;-75
2023/11/26 03:16:07;;;;;;;10.13;3.43;;;0.90;92.10;;;-0.32;99.62;97563.78;4946543;28;20985;-74
2023/11/26 03:18:34;;;;;;;6.80;2.90;;;0.80;91.50;;;-0.32;99.78;97575.25;4950791;28;20862;-74
2023/11/26 03:21:02;;;;;;;10.90;3.70;;;0.80;91.50;;;-0.38;99.99;97575.03;4944885;28;20492;-73
2023/11/26 03:23:30;;;;;;;3.47;2.80;;;0.80;91.50;;;-0.41;99.85;97580.66;4959237;28;20443;-73
2023/11/26 03:25:58;;;;;;;4.93;3.00;;;0.70;91.50;;;-0.27;99.40;97572.13;4944376;28;20472;-72
2023/11/26 03:28:26;;;;;;;7.30;3.00;;;0.70;91.60;;;-0.38;98.91;97575.03;4949086;28;20481;-76
2023/11/26 03:30:54;;;;;;;3.40;2.63;;;0.70;91.20;;;-0.60;99.77;97567.44;4953538;28;20460;-75
2023/11/26 03:33:22;;;;;;;3.80;2.67;;;0.60;91.30;;;-0.54;99.63;97597.81;4947671;28;20601;-74
2023/11/26 03:35:50;;;;;;;6.90;3.07;;;0.60;91.40;;;-0.67;100.00;97584.97;4947173;28;20512;-75
2023/11/26 03:38:18;;;;;;;4.47;2.60;;;0.50;91.50;;;-0.64;100.00;97599.72;4947957;28;20668;-75
2023/11/26 03:40:45;;;;;;;7.60;3.40;;;0.50;91.80;;;-0.68;100.00;97603.69;4947022;28;20458;-74
2023/11/26 03:43:14;;;;;;;5.83;3.50;;;0.40;91.80;;;-0.72;100.00;97605.81;4950116;28;20541;-74
2023/11/26 03:45:43;;;;;;;4.80;3.20;;;0.30;92.00;;;-0.92;100.00;97595.38;4952460;28;20459;-75
2023/11/26 03:48:10;;;;;;;4.20;3.20;;;0.30;92.20;;;-0.92;100.00;97619.25;4952979;28;20462;-75
2023/11/26 03:50:39;;;;;;;5.87;3.20;;;0.20;92.40;;;-0.95;100.00;97624.88;4963141;28;20468;-77
2023/11/26 03:53:06;;;;;;;4.30;2.80;;;0.10;92.70;;;-0.96;100.00;97622.34;4957627;28;20542;-77
2023/11/26 03:55:33;;;;;;;2.83;2.43;;;0.00;92.80;;;-1.72;100.00;97525.38;4946364;28;20488;-77
2023/11/26 03:58:00;;;;;;;3.10;2.80;;;0.00;93.00;;;-1.15;100.00;97626.81;4956737;28;21132;-77
2023/11/26 04:00:28;;;;;;;4.10;3.23;;;-0.10;93.50;;;-1.23;100.00;97635.53;4952115;28;20488;-73
2023/11/26 04:02:55;;;;;;;6.63;2.90;;;-0.10;93.50;;;-1.25;100.00;97634.84;4955446;28;20455;-73
2023/11/26 04:05:22;;;;;;;5.43;3.40;;;-0.20;93.90;;;-1.21;100.00;97641.50;4954374;29;20462;-74
2023/11/26 04:07:51;;;;;;;5.60;3.10;;;-0.20;93.90;;;-1.30;100.00;97648.53;4955079;28;20508;-72
2023/11/26 04:10:18;;;;;;;4.67;3.13;;;-0.30;94.20;;;-1.30;100.00;97645.03;4957580;28;20451;-70
2023/11/26 04:12:46;;;;;;;4.57;3.50;;;-0.20;94.30;;;-1.33;100.00;97646.19;4958968;28;20798;-76
2023/11/26 04:15:19;;;;;;;6.50;3.20;;;-0.30;94.30;;;-1.25;100.00;97648.09;4950888;28;20472;-75
2023/11/26 04:17:46;;;;;;;5.00;3.40;;;-0.30;94.70;;;-1.33;100.00;97655.94;4954962;29;20450;-75
2023/11/26 04:20:14;;;;;;;4.67;3.10;;;-0.30;94.40;;;-1.98;100.00;97550.88;4960203;28;20460;-74
2023/11/26 04:22:41;;;;;;;5.83;3.37;;;-0.30;94.20;;;-1.44;100.00;97663.13;4951787;28;20456;-75
2023/11/26 04:25:10;;;;;;;5.27;3.30;;;-0.40;94.00;;;-1.46;100.00;97662.44;4947978;28;20460;-76
2023/11/26 04:27:38;;;;;;;5.57;3.30;;;-0.40;94.20;;;-1.57;100.00;97641.44;4946152;29;20489;-78
2023/11/26 04:30:07;;;;;;;8.20;3.90;;;-0.40;94.50;;;-1.47;100.00;97671.38;4947851;28;20466;-76
2023/11/26 04:32:35;;;;;;;5.93;3.30;;;-0.40;94.20;;;-1.56;100.00;97677.56;4947069;28;20465;-79
2023/11/26 04:35:03;;;;;;;7.93;4.00;;;-0.50;94.10;;;-1.57;100.00;97674.06;4947387;28;20512;-78
2023/11/26 04:37:30;;;;;;;6.13;3.60;;;-0.50;94.40;;;-1.57;100.00;97678.53;4946846;28;20548;-75
2023/11/26 04:39:57;;;;;;;7.70;3.83;;;-0.50;94.60;;;-1.65;100.00;97684.56;4948726;28;20466;-73
2023/11/26 04:42:27;;;;;;;5.50;4.43;;;-0.60;94.70;;;-1.64;100.00;97682.75;4941498;28;20459;-76
2023/11/26 04:44:54;;;;;;;10.57;3.80;;;-0.60;94.90;;;-1.66;100.00;97687.34;4947004;28;20458;-77
2023/11/26 04:47:21;;;;;;;7.07;5.07;;;-0.60;95.10;;;-1.72;100.00;97686.97;4942854;29;20491;-78
2023/11/26 04:49:48;;;;;;;7.00;5.00;;;-0.70;95.40;;;-1.76;100.00;97693.53;4946689;28;20479;-74
2023/11/26 04:52:15;;;;;;;8.00;4.70;;;-0.70;95.80;;;-1.74;100.00;97688.94;4942113;28;20576;-74
2023/11/26 04:54:42;;;;;;;7.87;4.23;;;-0.70;96.10;;;-1.74;100.00;97694.22;4945732;28;20932;-77
2023/11/26 04:57:10;;;;;;;9.90;4.67;;;-0.70;96.30;;;-1.73;100.00;97687.97;4946435;29;20478;-72
2023/11/26 04:59:39;;;;;;;8.20;4.87;;;-0.70;96.70;;;-2.40;100.00;97595.34;4946447;28;20455;-75
2023/11/26 05:02:09;;;;;;;6.23;4.40;;;-0.60;97.00;;;-1.65;100.00;97704.94;4945988;29;20463;-76
2023/11/26 05:04:37;;;;;;;12.17;5.60;;;-0.60;97.40;;;-2.35;100.00;97603.72;4946752;28;20923;-75
2023/11/26 05:07:05;;;;;;;8.00;5.87;;;-0.60;97.60;;;-1.73;100.00;97709.16;4945793;28;20518;-72
2023/11/26 05:09:33;;;;;;;10.10;5.70;;;-0.60;97.80;;;-1.65;100.00;97718.16;4943224;28;20454;-74
2023/11/26 05:12:01;;;;;;;17.40;6.43;;;-0.60;98.10;;;-1.66;100.00;97725.31;4943042;29;20456;-75
2023/11/26 05:14:29;;;;;;;8.63;5.73;;;-0.70;98.40;;;-1.69;100.00;97720.25;4949029;28;20461;-75
2023/11/26 05:16:58;;;;;;;8.70;5.77;;;-0.70;98.60;;;-1.74;100.00;97723.38;4949548;28;20904;-76
2023/11/26 05:19:25;;;;;;;9.70;5.60;;;-0.80;98.40;;;-1.79;100.00;97730.91;4945155;28;20463;-74
2023/11/26 05:21:53;;;;;;;10.40;5.63;;;-0.90;98.40;;;-1.90;100.00;97729.25;4942551;28;20859;-72
2023/11/26 05:24:20;;;;;;;7.60;5.63;;;-0.90;98.70;;;-2.49;100.00;97638.56;4947595;28;21002;-74
2023/11/26 05:26:48;;;;;;;8.87;5.70;;;-0.90;99.00;;;-1.90;100.00;97725.75;4941948;28;20458;-77
2023/11/26 05:29:15;;;;;;;11.20;6.40;;;-0.90;99.80;;;-1.90;100.00;97744.31;4940289;28;20451;-77
2023/11/26 05:31:43;;;;;;;7.50;5.93;;;-0.90;99.80;;;-1.90;100.00;97744.31;4946485;28;20451;-79
2023/11/26 05:34:11;;;;;;;15.87;7.73;;;-0.90;99.90;;;-2.14;100.00;97727.09;4949004;28;20455;-75
2023/11/26 05:36:38;;;;;;;11.40;6.80;;;-1.00;99.90;;;-2.04;100.00;97749.09;4944731;29;20485;-77
2023/11/26 05:39:08;;;;;;;10.77;7.53;;;-1.00;99.90;;;-1.90;100.00;97749.59;4944428;29;20544;-78
2023/11/26 05:41:35;;;;;;;16.43;7.50;;;-0.90;99.90;;;-1.96;100.00;97755.47;4945823;28;20594;-76
2023/11/26 05:44:04;;;;;;;15.40;7.60;;;-1.00;99.90;;;-1.95;100.00;97751.84;4941430;28;22058;-77
2023/11/26 05:46:31;;;;;;;11.93;7.40;;;-1.00;99.90;;;-1.90;100.00;97757.53;4961776;28;20461;-75
2023/11/26 05:48:58;;;;;;;9.87;7.00;;;-0.90;99.90;;;-2.00;100.00;97763.72;4947650;28;20524;-77
2023/11/26 05:51:27;;;;;;;13.60;6.73;;;-1.00;99.90;;;-2.11;100.00;97766.50;4950502;28;20464;-77
2023/11/26 05:53:55;;;;;;;8.13;6.70;;;-1.00;99.90;;;-2.06;100.00;97771.38;4950213;28;21181;-77
2023/11/26 05:56:23;;;;;;;13.40;8.40;;;-1.00;99.90;;;-2.11;100.00;97781.56;4949023;28;20541;-75
2023/11/26 05:58:50;;;;;;;11.67;6.70;;;-1.10;99.90;;;-3.26;100.00;97578.47;4945905;28;20459;-77
2023/11/26 06:01:23;;;;;;;11.20;7.83;;;-1.10;99.90;;;-2.08;100.00;97774.16;4949893;28;20549;-73
2023/11/26 06:03:51;;;;;;;9.83;6.50;;;-1.10;99.90;;;-2.13;100.00;97779.88;4950710;29;20957;-75
2023/11/26 06:06:18;;;;;;;10.63;6.30;;;-1.10;99.90;;;-2.15;100.00;97781.00;4950144;28;20982;-76
2023/11/26 06:08:46;;;;;;;12.03;8.27;;;-1.20;99.90;;;-2.12;100.00;97799.25;4950411;28;20461;-77
2023/11/26 06:11:14;;;;;;;12.80;8.10;;;-1.10;99.90;;;-2.07;100.00;97778.47;4945526;29;20491;-73
2023/11/26 06:13:41;;;;;;;11.80;7.37;;;-1.10;99.90;;;-2.00;100.00;97782.25;4949868;28;20466;-75
2023/11/26 06:16:10;;;;;;;12.63;7.20;;;-1.00;99.90;;;-2.06;100.00;97782.78;4946608;28;20548;-77
2023/11/26 06:18:37;;;;;;;11.40;7.87;;;-1.10;99.90;;;-2.07;100.00;97786.41;4950581;28;20558;-79
2023/11/26 06:21:04;;;;;;;9.60;7.30;;;-1.20;99.90;;;-1.99;100.00;97783.06;4962891;28;21027;-74
2023/11/26 06:23:32;;;;;;;13.03;7.70;;;-1.10;99.90;;;-1.95;100.00;97780.97;4949094;29;20490;-74
2023/11/26 06:26:01;;;;;;;12.00;7.40;;;-1.10;99.90;;;-1.74;100.00;97764.91;4961449;28;20491;-74
2023/11/26 06:28:28;;;;;;;13.70;8.00;;;-0.80;99.90;;;-1.30;100.00;97788.19;4944800;28;20470;-74
2023/11/26 06:30:55;;;;;;;16.57;8.17;;;-0.50;99.90;;;-1.53;100.00;97772.66;4949815;28;20548;-69
2023/11/26 06:33:24;;;;;;;12.73;8.07;;;-0.50;99.90;;;-1.48;100.00;97802.22;4948417;28;20949;-76
2023/11/26 06:35:51;;;;;;;13.77;8.90;;;-0.50;99.90;;;-1.39;100.00;97804.97;4964480;28;20452;-76
2023/11/26 06:38:18;;;;;;;17.87;9.27;;;-0.50;99.90;;;-1.34;100.00;97798.28;4948125;28;20503;-70
2023/11/26 06:40:46;;;;;;;11.40;7.97;;;-0.50;99.90;;;-1.30;100.00;97801.44;4945870;28;20968;-70
2023/11/26 06:43:15;;;;;;;13.37;9.50;;;-0.40;99.90;;;-1.27;100.00;97808.28;4946447;28;20546;-72
2023/11/26 06:45:43;;;;;;;17.70;9.60;;;-0.40;99.90;;;-1.13;100.00;97807.81;4942907;28;20545;-71
2023/11/26 06:48:10;;;;;;;13.33;8.87;;;-0.30;99.90;;;-1.17;100.00;97814.41;4947263;28;20546;-73
2023/11/26 06:50:37;;;;;;;13.97;9.70;;;-0.30;99.90;;;-1.20;100.00;97810.22;4948689;28;23720;-71
2023/11/26 06:53:05;;;;;;;13.53;9.63;;;-0.40;99.90;;;-1.11;100.00;97807.69;4948240;28;20457;-71
2023/11/26 06:55:32;;;;;;;13.73;9.57;;;-0.30;99.90;;;-1.07;100.00;97825.78;4945944;28;20792;-72
2023/11/26 06:57:59;;;;;;;11.03;8.20;;;-0.30;99.90;;;-1.06;100.00;97821.31;4944117;28;20563;-71
2023/11/26 07:00:29;;;;;;;14.37;8.60;;;-0.20;99.90;;;-1.08;100.00;97832.06;4948423;28;20471;-72
2023/11/26 07:02:57;;;;;;;14.03;8.37;;;-0.20;99.90;;;-1.09;100.00;97832.22;4947981;28;20452;-73
2023/11/26 07:05:25;;;;;;;14.23;10.10;;;-0.20;99.90;;;-1.09;100.00;97838.34;4952467;28;20456;-71
2023/11/26 07:07:52;;;;;;;13.00;8.33;;;-0.20;98.80;;;-1.25;100.00;97841.63;4949700;28;20631;-72
2023/11/26 07:10:19;;;;;;;17.33;8.73;;;-0.30;97.50;;;-1.34;100.00;97831.88;4949203;28;20461;-72
2023/11/26 07:12:46;;;;;;;13.30;8.23;;;-0.40;97.20;;;-1.15;100.00;97839.75;4963329;28;20482;-72
2023/11/26 07:15:15;;;;;;;13.83;9.57;;;-0.30;97.80;;;-1.25;100.00;97838.97;4947651;28;20460;-72
2023/11/26 07:17:44;;;;;;;14.30;9.33;;;-0.40;97.50;;;-1.21;100.00;97840.34;4939555;28;20479;-71
2023/11/26 07:20:16;;;;;;;15.97;8.87;;;-0.40;97.50;;;-1.22;100.00;97844.00;4942867;28;20965;-72
2023/11/26 07:22:43;;;;;;;21.00;10.83;;;-0.40;98.20;;;-1.12;100.00;97832.53;4960895;28;20469;-73
2023/11/26 07:25:11;;;;;;;12.83;8.90;;;-0.30;98.20;;;-1.09;100.00;97837.53;4943650;28;20476;-73
2023/11/26 07:27:38;;;;;;;13.27;9.40;;;-0.30;98.10;;;-1.04;100.00;97851.19;4942305;28;21014;-74
2023/11/26 07:30:10;;;;;;;12.07;8.30;;;-0.30;98.30;;;-0.98;100.00;97840.00;4938659;28;22042;-76
2023/11/26 07:32:37;;;;;;;17.40;9.23;;;-0.30;98.40;;;-1.03;100.00;97842.25;4944398;28;20461;-73
2023/11/26 07:35:07;;;;;;;21.33;10.50;;;-0.20;98.40;;;-0.99;100.00;97833.00;4947026;29;20459;-76
2023/11/26 07:37:35;;;;;;;15.63;10.37;;;-0.20;98.50;;;-0.88;100.00;97846.09;4961882;28;20496;-75
2023/11/26 07:40:03;;;;;;;12.27;8.90;;;-0.10;98.50;;;-0.80;100.00;97852.50;4948432;28;20441;-77
2023/11/26 07:42:33;;;;;;;13.43;9.03;;;0.00;98.10;;;-0.67;100.00;97860.09;4950640;28;21004;-73
2023/11/26 07:45:00;;;;;;;11.77;8.50;;;0.10;97.60;;;-0.67;100.00;97858.28;4944191;28;20858;-75
2023/11/26 07:47:27;;;;;;;12.80;8.90;;;0.10;96.80;;;-0.76;100.00;97859.16;4941254;28;20460;-71
2023/11/26 07:49:55;;;;;;;19.57;10.53;;;0.10;96.40;;;-0.48;100.00;97859.16;4947060;28;20461;-75
2023/11/26 07:52:23;;;;;;;15.90;9.93;;;0.30;96.60;;;-0.40;100.00;97863.72;4943568;28;20514;-75
2023/11/26 07:54:51;;;;;;;12.63;8.97;;;0.30;96.40;;;-0.41;100.00;97870.84;4943632;28;20467;-73
2023/11/26 07:57:18;;;;;;;15.90;8.70;;;0.40;95.50;;;-0.40;100.00;97866.38;4945887;28;20482;-82
2023/11/26 07:59:45;;;;;;;14.67;7.60;;;0.50;95.10;;;-0.29;100.00;97869.66;4940461;28;20464;-73
2023/11/26 08:02:13;;;;;;;11.43;8.50;;;0.60;94.90;;;-0.34;100.00;97873.75;4947746;28;20986;-72
2023/11/26 08:04:40;;;;;;;15.97;6.77;;;0.60;94.20;;;-0.43;100.00;97872.81;4944272;28;20463;-69
2023/11/26 08:07:08;;;;;;;13.47;8.30;;;0.60;93.40;;;-0.34;100.00;97879.91;4943698;28;20480;-72
2023/11/26 08:09:38;;;;;;;12.23;7.30;;;0.60;93.10;;;-0.22;100.00;97874.38;4946249;28;20456;-72
2023/11/26 08:12:10;;;;;;;11.60;8.50;;;0.70;93.00;;;-0.01;100.00;97884.69;4941906;28;20494;-71
2023/11/26 08:14:38;;;;;;;13.77;8.97;;;0.90;93.20;;;-0.15;98.96;97878.09;4944858;28;20472;-72
2023/11/26 08:17:06;;;;;;;11.87;8.73;;;0.90;91.90;;;-0.11;99.52;97890.06;4944545;28;20488;-72
2023/11/26 08:19:34;;;;;;;16.10;9.47;;;0.80;92.10;;;-0.08;100.00;97889.78;4946303;28;20989;-73
2023/11/26 08:22:01;;;;;;;20.77;11.67;;;0.90;92.10;;;0.03;99.31;97893.19;4944617;28;20472;-72
2023/11/26 08:24:29;;;;;;;14.33;8.77;;;1.00;92.30;;;0.26;98.73;97894.44;4942172;28;20505;-72
2023/11/26 08:26:58;;;;;;;17.77;9.90;;;1.10;92.50;;;0.41;98.56;97893.88;4946593;28;20464;-73
2023/11/26 08:29:25;;;;;;;12.37;8.80;;;1.20;92.30;;;0.55;97.86;97896.00;4939977;28;20466;-70
2023/11/26 08:31:53;;;;;;;13.70;8.67;;;1.40;92.00;;;0.60;95.82;97886.72;4942355;28;20506;-72
2023/11/26 08:34:22;;;;;;;10.63;8.00;;;1.50;90.80;;;0.74;95.46;97891.47;4945108;28;20510;-71
2023/11/26 08:36:51;;;;;;;12.60;8.00;;;1.60;90.40;;;0.68;93.92;97894.72;4941868;28;20481;-71
2023/11/26 08:39:25;;;;;;;12.30;8.23;;;1.60;88.50;;;0.78;94.30;97895.47;4945516;28;20527;-72
2023/11/26 08:41:53;;;;;;;10.20;6.63;;;1.70;89.00;;;0.64;93.93;97896.03;4957243;28;20462;-72
2023/11/26 08:44:21;;;;;;;12.10;8.57;;;1.60;88.00;;;0.67;94.22;97904.56;4946378;28;20466;-73
2023/11/26 08:46:49;;;;;;;12.00;8.00;;;1.60;88.30;;;0.76;94.46;97891.28;4946255;28;20460;-69
2023/11/26 08:49:20;;;;;;;11.83;7.93;;;1.60;88.80;;;0.62;94.27;97901.53;4958928;28;20447;-71
2023/11/26 08:51:48;;;;;;;10.87;7.40;;;1.60;88.00;;;0.62;94.79;97896.22;4945952;28;20449;-70
2023/11/26 08:54:15;;;;;;;9.27;7.53;;;1.60;88.70;;;0.81;94.33;97895.16;4945871;28;20464;-73
2023/11/26 08:56:42;;;;;;;12.07;8.20;;;1.60;89.00;;;0.32;93.32;97799.09;4944008;28;20525;-70
2023/11/26 08:59:10;;;;;;;10.80;8.50;;;1.80;88.50;;;0.82;92.48;97890.69;4958010;28;20471;-71
2023/11/26 09:01:38;;;;;;;10.40;7.87;;;1.70;86.90;;;0.81;93.10;97895.16;4938339;28;20539;-70
2023/11/26 09:04:07;;;;;;;11.70;6.90;;;1.70;87.20;;;1.05;91.47;97888.34;4937379;28;21009;-71
2023/11/26 09:06:34;;;;;;;11.23;7.47;;;1.90;86.80;;;1.30;90.34;97890.28;4937009;28;20555;-71
2023/11/26 09:09:01;;;;;;;12.40;8.53;;;2.10;86.40;;;1.49;89.68;97902.53;4945624;28;21414;-72
2023/11/26 09:11:29;;;;;;;9.70;6.90;;;2.30;85.30;;;1.59;87.91;97899.72;4939698;28;21242;-70
2023/11/26 09:13:58;;;;;;;9.80;7.10;;;2.40;84.20;;;1.43;88.30;97882.69;4937207;28;20544;-70
2023/11/26 09:16:25;;;;;;;10.53;6.30;;;2.40;83.60;;;1.49;87.26;97908.66;4945337;28;20472;-74
2023/11/26 09:18:53;;;;;;;9.33;6.60;;;2.40;83.00;;;1.88;88.62;97906.47;4959463;28;20970;-80
2023/11/26 09:21:22;;;;;;;8.63;7.10;;;2.60;84.30;;;1.79;87.18;97903.78;4951170;28;20548;-76
2023/11/26 09:23:51;;;;;;;8.67;6.60;;;2.70;83.40;;;1.79;87.77;97908.28;4941969;28;20562;-75
2023/11/26 09:26:19;;;;;;;8.40;6.57;;;2.70;83.30;;;2.21;86.18;97904.72;4938963;28;21067;-73
2023/11/26 09:28:46;;;;;;;10.47;6.80;;;2.90;83.30;;;2.08;84.71;97901.69;4946410;28;20470;-76
2023/11/26 09:31:14;;;;;;;7.73;6.30;;;2.90;82.00;;;2.02;85.77;97897.84;4944403;28;20949;-74
2023/11/26 09:33:41;;;;;;;7.40;6.00;;;2.90;82.00;;;2.37;84.64;97895.06;4944604;28;20461;-74
2023/11/26 09:36:11;;;;;;;8.33;5.93;;;3.10;82.30;;;2.58;85.59;97896.41;4944879;28;20858;-79
2023/11/26 09:38:39;;;;;;;8.67;6.00;;;3.20;82.40;;;2.69;82.71;97894.22;4947666;28;20498;-80
2023/11/26 09:41:08;;;;;;;10.57;5.93;;;3.50;81.30;;;2.54;82.32;97875.41;4950741;28;21232;-78
2023/11/26 09:43:35;;;;;;;12.43;6.60;;;3.60;81.00;;;2.60;82.71;97899.72;4949224;28;20460;-79
2023/11/26 09:46:04;;;;;;;7.23;5.50;;;3.50;80.40;;;2.17;83.47;97890.03;4948683;28;20459;-78
2023/11/26 09:48:31;;;;;;;9.60;5.50;;;3.20;80.00;;;2.09;83.90;97903.38;4950796;28;20475;-75
2023/11/26 09:51:00;;;;;;;6.73;5.33;;;3.10;80.50;;;2.38;83.42;97891.41;4964580;28;20455;-71
2023/11/26 09:53:30;;;;;;;9.57;5.37;;;3.20;80.90;;;2.18;82.79;97889.03;4949272;28;20466;-73
2023/11/26 09:55:57;;;;;;;5.53;5.03;;;3.20;80.30;;;2.16;83.07;97888.38;4948109;28;20451;-72
2023/11/26 09:58:25;;;;;;;8.70;5.40;;;3.10;80.10;;;2.50;83.45;97890.06;4949047;28;20484;-78
2023/11/26 10:00:52;;;;;;;6.67;5.30;;;3.30;80.60;;;2.79;82.06;97894.03;4960407;28;20497;-72
2023/11/26 10:03:19;;;;;;;5.20;3.87;;;3.50;81.00;;;2.75;79.21;97890.03;4962497;28;20457;-70
2023/11/26 10:05:47;;;;;;;5.50;3.70;;;3.60;78.60;;;2.41;79.76;97885.72;4943663;28;20503;-69
2023/11/26 10:08:32;;;;;;;4.60;4.20;;;3.40;78.20;;;2.40;80.61;97894.72;4955626;28;20617;-70
2023/11/26 10:10:59;;;;;;;7.37;4.10;;;3.30;78.70;;;2.52;80.27;97898.75;4943905;28;20469;-72
2023/11/26 10:13:38;;;;;;;6.00;4.20;;;3.40;78.70;;;2.41;80.71;97888.41;4949472;28;21160;-72
2023/11/26 10:16:08;;;;;;;8.73;4.20;;;3.30;78.60;;;2.36;80.10;97872.88;4945406;28;20485;-72
2023/11/26 10:18:42;;;;;;;4.60;4.20;;;3.30;78.80;;;2.38;80.30;97881.56;4941117;28;21003;-71
2023/11/26 10:21:10;;;;;;;5.10;4.40;;;3.30;78.40;;;2.45;80.09;97883.56;4943838;28;20463;-72
2023/11/26 10:23:40;;;;;;;5.30;4.50;;;3.20;78.70;;;2.55;80.03;97877.06;4949179;28;20467;-72